createdAt,value
2022-11-27T00:00:05.807Z,60.50
2022-11-27T00:02:40.951Z,51.97
2022-11-27T00:05:08.613Z,56.87
2022-11-27T00:07:36.042Z,62.60
2022-11-27T00:10:03.602Z,57.47
2022-11-27T00:12:31.747Z,68.80
2022-11-27T00:14:59.001Z,55.13
2022-11-27T00:17:26.360Z,52.97
2022-11-27T00:19:53.707Z,54.23
2022-11-27T00:22:21.072Z,46.83
2022-11-27T00:24:48.449Z,51.30
2022-11-27T00:27:15.783Z,47.40
2022-11-27T00:29:43.824Z,54.80
2022-11-27T00:32:11.174Z,43.50
2022-11-27T00:34:38.807Z,46.30
2022-11-27T00:37:07.213Z,39.03
2022-11-27T00:39:34.738Z,53.03
2022-11-27T00:42:02.051Z,49.20
2022-11-27T00:44:29.420Z,45.30
2022-11-27T00:46:56.722Z,35.70
2022-11-27T00:49:24.123Z,32.97
2022-11-27T00:51:51.438Z,36.50
2022-11-27T00:54:22.689Z,42.30
2022-11-27T00:56:50.232Z,32.00
2022-11-27T00:59:17.581Z,31.30
2022-11-27T01:01:45.008Z,29.30
2022-11-27T01:04:13.839Z,30.93
2022-11-27T01:06:41.395Z,25.70
2022-11-27T01:09:08.891Z,28.63
2022-11-27T01:11:36.310Z,23.37
2022-11-27T01:14:05.388Z,25.27
2022-11-27T01:16:33.461Z,26.50
2022-11-27T01:19:01.556Z,16.97
2022-11-27T01:21:30.154Z,27.07
2022-11-27T01:23:57.682Z,28.20
2022-11-27T01:26:25.623Z,30.00
2022-11-27T01:28:53.751Z,22.10
2022-11-27T01:31:23.034Z,26.97
2022-11-27T01:33:53.714Z,20.83
2022-11-27T01:36:21.152Z,26.40
2022-11-27T01:38:48.516Z,21.77
2022-11-27T01:41:17.498Z,30.67
2022-11-27T01:43:46.366Z,26.20
2022-11-27T01:46:26.712Z,30.90
2022-11-27T01:48:55.111Z,27.77
2022-11-27T01:51:22.906Z,36.13
2022-11-27T01:53:50.836Z,26.33
2022-11-27T01:56:18.814Z,30.97
2022-11-27T01:58:46.307Z,33.17
2022-11-27T02:01:13.624Z,31.33
2022-11-27T02:03:40.933Z,35.07
2022-11-27T02:06:10.081Z,28.27
2022-11-27T02:08:37.356Z,30.33
2022-11-27T02:11:13.165Z,39.63
2022-11-27T02:13:44.924Z,35.57
2022-11-27T02:16:18.127Z,29.73
2022-11-27T02:18:45.690Z,39.83
2022-11-27T02:21:15.699Z,38.80
2022-11-27T02:23:54.591Z,30.47
2022-11-27T02:26:42.816Z,36.87
2022-11-27T02:29:10.976Z,32.83
2022-11-27T02:31:41.416Z,40.43
2022-11-27T02:34:24.168Z,35.77
2022-11-27T02:36:55.614Z,41.83
2022-11-27T02:39:26.344Z,30.70
2022-11-27T02:41:58.150Z,35.83
2022-11-27T02:44:26.872Z,31.17
2022-11-27T02:46:54.961Z,33.67
2022-11-27T02:49:22.519Z,41.23
2022-11-27T02:51:55.693Z,37.43
2022-11-27T02:54:26.904Z,36.03
2022-11-27T02:56:55.503Z,33.97
2022-11-27T02:59:23.884Z,35.40
2022-11-27T03:01:58.504Z,37.27
2022-11-27T03:04:28.031Z,45.03
2022-11-27T03:06:56.772Z,35.03
2022-11-27T03:09:33.851Z,36.60
2022-11-27T03:12:03.318Z,31.17
2022-11-27T03:14:30.650Z,35.73
2022-11-27T03:17:04.832Z,39.87
2022-11-27T03:19:49.037Z,37.20
2022-11-27T03:22:17.109Z,45.97
2022-11-27T03:24:44.529Z,32.33
2022-11-27T03:27:14.661Z,36.03
2022-11-27T03:29:44.006Z,37.07
2022-11-27T03:32:11.608Z,40.13
2022-11-27T03:34:40.166Z,34.70
2022-11-27T03:37:07.698Z,42.70
2022-11-27T03:39:35.281Z,41.57
2022-11-27T03:42:05.674Z,36.97
2022-11-27T03:44:40.660Z,41.53
2022-11-27T03:47:26.828Z,42.00
2022-11-27T03:49:56.859Z,49.63
2022-11-27T03:52:36.428Z,37.87
2022-11-27T03:55:10.277Z,44.43
2022-11-27T03:57:57.889Z,36.47
2022-11-27T04:00:25.533Z,49.53
2022-11-27T04:02:53.383Z,38.93
2022-11-27T04:05:21.376Z,38.60
2022-11-27T04:07:48.976Z,44.93
2022-11-27T04:10:16.310Z,34.00
2022-11-27T04:12:43.657Z,24.63
2022-11-27T04:15:11.242Z,41.17
2022-11-27T04:17:38.555Z,38.00
2022-11-27T04:20:06.254Z,36.87
2022-11-27T04:22:33.601Z,37.00
2022-11-27T04:25:00.961Z,39.07
2022-11-27T04:27:28.291Z,40.80
2022-11-27T04:29:55.586Z,43.87
2022-11-27T04:32:23.023Z,44.67
2022-11-27T04:34:50.293Z,37.13
2022-11-27T04:37:17.586Z,34.03
2022-11-27T04:39:44.848Z,34.37
2022-11-27T04:42:12.131Z,39.37
2022-11-27T04:44:39.624Z,40.63
2022-11-27T04:47:07.173Z,43.13
2022-11-27T04:49:34.576Z,36.33
2022-11-27T04:52:01.847Z,47.33
2022-11-27T04:54:29.141Z,38.80
2022-11-27T04:56:56.455Z,44.33
2022-11-27T04:59:23.789Z,40.10
2022-11-27T05:01:51.070Z,43.63
2022-11-27T05:04:18.379Z,41.57
2022-11-27T05:06:45.650Z,35.13
2022-11-27T05:09:12.919Z,47.03
2022-11-27T05:11:40.201Z,40.33
2022-11-27T05:14:20.767Z,44.97
2022-11-27T05:16:49.327Z,39.07
2022-11-27T05:19:17.767Z,38.37
2022-11-27T05:21:45.710Z,38.80
2022-11-27T05:24:13.546Z,39.80
2022-11-27T05:26:41.332Z,36.53
2022-11-27T05:29:09.545Z,32.07
2022-11-27T05:31:37.340Z,42.47
2022-11-27T05:34:05.007Z,31.00
2022-11-27T05:36:32.998Z,38.37
2022-11-27T05:39:01.007Z,28.80
2022-11-27T05:41:28.699Z,35.23
2022-11-27T05:43:56.209Z,33.03
2022-11-27T05:46:24.007Z,39.77
2022-11-27T05:48:51.372Z,40.63
2022-11-27T05:51:19.158Z,48.97
2022-11-27T05:53:46.427Z,39.60
2022-11-27T05:56:15.105Z,46.10
2022-11-27T05:58:43.483Z,38.77
2022-11-27T06:01:11.349Z,39.90
2022-11-27T06:03:41.627Z,38.10
2022-11-27T06:06:10.031Z,40.83
2022-11-27T06:08:38.260Z,40.23
2022-11-27T06:11:13.123Z,36.57
2022-11-27T06:13:40.834Z,36.37
2022-11-27T06:16:08.255Z,30.07
2022-11-27T06:18:36.029Z,30.43
2022-11-27T06:21:06.731Z,39.40
2022-11-27T06:23:34.351Z,37.93
2022-11-27T06:26:10.397Z,32.50
2022-11-27T06:28:37.829Z,29.47
2022-11-27T06:31:17.562Z,34.70
2022-11-27T06:33:45.870Z,27.30
2022-11-27T06:36:13.133Z,33.57
2022-11-27T06:38:40.540Z,37.13
2022-11-27T06:41:12.312Z,28.43
2022-11-27T06:43:39.591Z,41.10
2022-11-27T06:46:07.726Z,28.37
2022-11-27T06:48:35.091Z,37.83
2022-11-27T06:51:02.914Z,42.90
2022-11-27T06:53:30.899Z,33.77
2022-11-27T06:55:58.414Z,33.50
2022-11-27T06:58:30.847Z,34.27
2022-11-27T07:01:02.757Z,39.77
2022-11-27T07:03:30.443Z,31.00
2022-11-27T07:06:01.590Z,33.90
2022-11-27T07:08:29.050Z,20.90
2022-11-27T07:11:02.161Z,32.20
2022-11-27T07:13:30.200Z,31.73
2022-11-27T07:16:00.555Z,35.10
2022-11-27T07:18:28.030Z,29.77
2022-11-27T07:20:56.768Z,33.93
2022-11-27T07:23:24.386Z,28.93
2022-11-27T07:25:51.725Z,30.67
2022-11-27T07:28:19.393Z,32.90
2022-11-27T07:30:46.877Z,34.13
2022-11-27T07:33:14.198Z,28.03
2022-11-27T07:35:41.451Z,36.63
2022-11-27T07:38:08.751Z,31.17
2022-11-27T07:40:36.039Z,29.30
2022-11-27T07:43:03.437Z,28.97
2022-11-27T07:45:30.839Z,34.43
2022-11-27T07:47:58.282Z,28.03
2022-11-27T07:50:25.553Z,27.93
2022-11-27T07:52:52.834Z,29.03
2022-11-27T07:55:20.157Z,30.27
2022-11-27T07:57:47.518Z,26.77
2022-11-27T08:00:14.996Z,24.53
2022-11-27T08:02:42.287Z,31.90
2022-11-27T08:05:13.052Z,25.23
2022-11-27T08:07:41.241Z,34.80
2022-11-27T08:10:08.819Z,32.47
2022-11-27T08:12:36.183Z,29.60
2022-11-27T08:15:04.946Z,31.60
2022-11-27T08:17:32.379Z,30.83
2022-11-27T08:19:59.761Z,38.17
2022-11-27T08:22:27.109Z,31.03
2022-11-27T08:24:54.444Z,26.63
2022-11-27T08:27:21.831Z,36.53
2022-11-27T08:29:49.125Z,26.87
2022-11-27T08:32:16.415Z,34.23
2022-11-27T08:34:43.850Z,29.93
2022-11-27T08:37:11.232Z,27.20
2022-11-27T08:39:38.624Z,24.57
2022-11-27T08:42:06.002Z,23.43
2022-11-27T08:44:33.289Z,21.60
2022-11-27T08:47:00.597Z,26.57
2022-11-27T08:49:27.862Z,22.10
2022-11-27T08:51:55.144Z,32.23
2022-11-27T08:54:22.432Z,23.50
2022-11-27T08:56:49.840Z,26.47
2022-11-27T08:59:17.752Z,25.37
2022-11-27T09:01:45.061Z,17.57
2022-11-27T09:04:12.448Z,24.90
2022-11-27T09:06:41.463Z,23.53
2022-11-27T09:09:08.925Z,15.50
2022-11-27T09:11:37.039Z,24.97
2022-11-27T09:14:05.184Z,21.80
2022-11-27T09:16:32.527Z,19.33
2022-11-27T09:19:00.109Z,22.37
2022-11-27T09:21:28.401Z,25.10
2022-11-27T09:23:56.443Z,20.57
2022-11-27T09:26:25.431Z,21.77
2022-11-27T09:28:53.863Z,20.70
2022-11-27T09:31:21.550Z,19.37
2022-11-27T09:33:48.904Z,20.50
2022-11-27T09:36:16.138Z,19.67
2022-11-27T09:38:43.951Z,21.40
2022-11-27T09:41:14.426Z,24.63
2022-11-27T09:43:49.736Z,30.80
2022-11-27T09:46:21.892Z,15.70
2022-11-27T09:48:50.537Z,17.00
2022-11-27T09:51:36.374Z,25.30
2022-11-27T09:54:25.991Z,16.17
2022-11-27T09:56:55.482Z,20.27
2022-11-27T09:59:24.202Z,20.57
2022-11-27T10:01:52.074Z,15.40
2022-11-27T10:04:20.310Z,21.17
2022-11-27T10:06:50.605Z,20.07
2022-11-27T10:09:24.173Z,14.30
2022-11-27T10:12:00.460Z,16.87
2022-11-27T10:14:57.151Z,23.77
2022-11-27T10:17:32.188Z,16.10
2022-11-27T10:20:04.047Z,21.23
2022-11-27T10:22:37.320Z,15.77
2022-11-27T10:25:30.277Z,18.60
2022-11-27T10:28:00.691Z,17.77
2022-11-27T10:30:29.815Z,17.33
2022-11-27T10:32:59.444Z,21.07
2022-11-27T10:35:31.662Z,22.67
2022-11-27T10:38:07.053Z,16.27
2022-11-27T10:40:37.536Z,19.20
2022-11-27T10:43:13.875Z,20.53
2022-11-27T10:45:45.475Z,17.57
2022-11-27T10:48:13.882Z,18.67
2022-11-27T10:50:41.748Z,18.90
2022-11-27T10:53:11.833Z,17.27
2022-11-27T10:56:04.205Z,21.43
2022-11-27T10:58:42.489Z,20.17
2022-11-27T11:01:14.581Z,25.00
2022-11-27T11:03:42.045Z,15.63
2022-11-27T11:06:22.425Z,17.30
2022-11-27T11:09:02.080Z,15.73
2022-11-27T11:11:29.464Z,18.43
2022-11-27T11:13:56.943Z,16.47
2022-11-27T11:16:34.814Z,18.10
2022-11-27T11:19:03.584Z,15.33
2022-11-27T11:21:31.031Z,18.67
2022-11-27T11:24:02.662Z,16.57
2022-11-27T11:26:46.942Z,18.90
2022-11-27T11:29:24.679Z,15.63
2022-11-27T11:31:54.409Z,14.83
2022-11-27T11:34:27.119Z,14.97
2022-11-27T11:37:05.903Z,19.17
2022-11-27T11:39:35.128Z,16.47
2022-11-27T11:42:09.026Z,17.90
2022-11-27T11:44:38.032Z,16.10
2022-11-27T11:47:05.516Z,21.63
2022-11-27T11:49:34.785Z,16.27
2022-11-27T11:52:14.596Z,19.87
2022-11-27T11:54:59.818Z,19.50
2022-11-27T11:57:36.653Z,13.67
2022-11-27T12:00:28.028Z,15.33
2022-11-27T12:03:16.309Z,15.40
2022-11-27T12:05:58.685Z,14.80
2022-11-27T12:08:29.061Z,21.57
2022-11-27T12:11:06.264Z,12.50
2022-11-27T12:13:33.628Z,14.80
2022-11-27T12:16:08.871Z,18.43
2022-11-27T12:18:45.423Z,13.57
2022-11-27T12:21:15.216Z,15.30
2022-11-27T12:23:54.449Z,15.47
2022-11-27T12:26:21.812Z,14.67
2022-11-27T12:28:51.163Z,15.43
2022-11-27T12:31:21.930Z,13.53
2022-11-27T12:34:01.589Z,19.27
2022-11-27T12:36:35.025Z,22.93
2022-11-27T12:39:09.085Z,18.73
2022-11-27T12:41:55.592Z,10.60
2022-11-27T12:44:28.803Z,14.77
2022-11-27T12:47:02.750Z,21.17
2022-11-27T12:49:45.244Z,13.73
2022-11-27T12:52:20.406Z,11.20
2022-11-27T12:54:51.565Z,15.13
2022-11-27T12:57:21.698Z,17.80
2022-11-27T12:59:58.583Z,15.20
2022-11-27T13:02:37.338Z,16.73
2022-11-27T13:05:07.215Z,15.80
2022-11-27T13:07:40.025Z,20.77
2022-11-27T13:10:07.685Z,11.67
2022-11-27T13:12:42.537Z,15.10
2022-11-27T13:15:29.060Z,15.57
2022-11-27T13:18:00.891Z,18.63
2022-11-27T13:20:33.310Z,17.77
2022-11-27T13:23:00.661Z,17.60
2022-11-27T13:25:28.499Z,13.00
2022-11-27T13:27:56.233Z,15.53
2022-11-27T13:30:25.408Z,11.77
2022-11-27T13:32:59.313Z,14.93
2022-11-27T13:35:38.534Z,12.30
2022-11-27T13:38:08.781Z,8.43
2022-11-27T13:40:47.223Z,10.37
2022-11-27T13:43:33.875Z,13.53
2022-11-27T13:46:04.075Z,15.13
2022-11-27T13:48:36.754Z,15.60
2022-11-27T13:51:05.888Z,11.87
2022-11-27T13:53:38.316Z,14.83
2022-11-27T13:56:06.398Z,13.67
2022-11-27T13:58:35.235Z,19.33
2022-11-27T14:01:32.186Z,12.97
2022-11-27T14:04:08.642Z,15.63
2022-11-27T14:06:36.457Z,12.50
2022-11-27T14:09:08.084Z,13.20
2022-11-27T14:11:41.217Z,15.10
2022-11-27T14:14:17.237Z,11.87
2022-11-27T14:16:53.082Z,11.93
2022-11-27T14:19:43.745Z,8.93
2022-11-27T14:22:15.042Z,16.37
2022-11-27T14:24:45.846Z,9.37
2022-11-27T14:27:16.845Z,14.67
2022-11-27T14:29:44.269Z,11.17
2022-11-27T14:32:13.711Z,11.40
2022-11-27T14:34:41.326Z,10.33
2022-11-27T14:37:20.374Z,7.90
2022-11-27T14:39:47.888Z,6.90
2022-11-27T14:42:39.006Z,9.17
2022-11-27T14:45:08.701Z,13.83
2022-11-27T14:47:36.319Z,11.73
2022-11-27T14:50:04.039Z,7.43
2022-11-27T14:52:31.610Z,15.50
2022-11-27T14:54:59.806Z,14.67
2022-11-27T14:57:28.429Z,13.63
2022-11-27T15:00:04.592Z,10.70
2022-11-27T15:02:32.703Z,11.07
2022-11-27T15:05:05.549Z,5.60
2022-11-27T15:07:39.801Z,8.77
2022-11-27T15:10:30.036Z,10.03
2022-11-27T15:12:59.162Z,6.13
2022-11-27T15:15:27.899Z,15.70
2022-11-27T15:17:57.171Z,6.97
2022-11-27T15:20:27.360Z,11.57
2022-11-27T15:22:55.577Z,8.10
2022-11-27T15:25:31.084Z,9.43
2022-11-27T15:27:58.452Z,6.73
2022-11-27T15:30:26.070Z,13.17
2022-11-27T15:32:55.473Z,8.53
2022-11-27T15:35:27.797Z,10.17
2022-11-27T15:37:56.372Z,9.90
2022-11-27T15:40:23.873Z,5.90
2022-11-27T15:42:53.336Z,96.57
2022-11-27T15:45:21.778Z,8.40
2022-11-27T15:47:49.810Z,8.50
2022-11-27T15:50:31.603Z,9.93
2022-11-27T15:53:20.792Z,8.37
2022-11-27T15:55:53.416Z,8.77
2022-11-27T15:58:39.254Z,7.03
2022-11-27T16:01:15.082Z,8.57
2022-11-27T16:03:51.332Z,12.90
2022-11-27T16:06:28.449Z,9.77
2022-11-27T16:08:56.587Z,7.87
2022-11-27T16:11:24.341Z,7.10
2022-11-27T16:13:51.906Z,6.00
2022-11-27T16:16:19.335Z,8.50
2022-11-27T16:18:46.729Z,12.77
2022-11-27T16:21:16.035Z,7.17
2022-11-27T16:23:43.452Z,8.30
2022-11-27T16:26:14.652Z,13.40
2022-11-27T16:28:42.153Z,10.27
2022-11-27T16:31:13.440Z,10.40
2022-11-27T16:33:40.910Z,7.73
2022-11-27T16:36:09.592Z,10.17
2022-11-27T16:38:37.435Z,12.60
2022-11-27T16:41:06.210Z,4.20
2022-11-27T16:43:53.138Z,10.23
2022-11-27T16:46:26.490Z,7.73
2022-11-27T16:48:54.889Z,7.37
2022-11-27T16:51:28.557Z,7.00
2022-11-27T16:53:56.836Z,8.37
2022-11-27T16:56:25.541Z,7.57
2022-11-27T16:58:59.325Z,5.03
2022-11-27T17:01:31.816Z,10.57
2022-11-27T17:03:59.629Z,8.60
2022-11-27T17:06:28.554Z,8.60
2022-11-27T17:08:56.896Z,8.20
2022-11-27T17:11:25.491Z,10.57
2022-11-27T17:13:56.675Z,10.07
2022-11-27T17:16:24.674Z,9.53
2022-11-27T17:18:53.027Z,8.80
2022-11-27T17:21:24.241Z,5.87
2022-11-27T17:23:52.219Z,9.83
2022-11-27T17:26:20.918Z,10.17
2022-11-27T17:28:48.465Z,10.20
2022-11-27T17:31:17.822Z,8.73
2022-11-27T17:33:45.881Z,8.17
2022-11-27T17:36:13.446Z,8.37
2022-11-27T17:38:41.326Z,9.63
2022-11-27T17:41:13.418Z,9.30
2022-11-27T17:43:41.198Z,11.43
2022-11-27T17:46:09.823Z,11.93
2022-11-27T17:48:37.720Z,8.10
2022-11-27T17:51:05.724Z,8.43
2022-11-27T17:53:33.350Z,9.13
2022-11-27T17:56:09.489Z,6.80
2022-11-27T17:58:37.774Z,11.40
2022-11-27T18:01:06.507Z,11.07
2022-11-27T18:03:34.599Z,8.83
2022-11-27T18:06:03.614Z,8.03
2022-11-27T18:08:31.409Z,8.90
2022-11-27T18:11:04.521Z,5.93
2022-11-27T18:13:32.558Z,6.70
2022-11-27T18:16:07.947Z,9.83
2022-11-27T18:18:35.643Z,6.53
2022-11-27T18:21:18.049Z,7.67
2022-11-27T18:24:20.741Z,18.60
2022-11-27T18:29:23.433Z,9.33
2022-11-27T18:31:52.695Z,8.43
2022-11-27T18:34:20.162Z,7.67
2022-11-27T18:36:47.615Z,8.93
2022-11-27T18:39:15.645Z,6.90
2022-11-27T18:41:43.152Z,9.63
2022-11-27T18:44:10.887Z,8.60
2022-11-27T18:46:38.812Z,6.80
2022-11-27T18:49:06.474Z,7.37
2022-11-27T18:51:33.952Z,5.67
2022-11-27T18:54:02.284Z,6.20
2022-11-27T18:56:31.615Z,8.40
2022-11-27T18:59:03.307Z,8.43
2022-11-27T19:01:36.726Z,11.03
2022-11-27T19:04:06.549Z,6.13
2022-11-27T19:06:35.449Z,8.27
2022-11-27T19:09:02.978Z,8.33
2022-11-27T19:11:32.600Z,5.30
2022-11-27T19:14:00.553Z,7.27
2022-11-27T19:16:31.378Z,4.70
2022-11-27T19:18:59.475Z,5.73
2022-11-27T19:21:28.191Z,5.93
2022-11-27T19:23:57.467Z,6.07
2022-11-27T19:26:26.778Z,4.07
2022-11-27T19:28:55.498Z,7.70
2022-11-27T19:31:24.158Z,8.87
2022-11-27T19:33:54.574Z,6.53
2022-11-27T19:36:22.564Z,13.10
2022-11-27T19:38:54.466Z,12.70
2022-11-27T19:41:22.092Z,9.10
2022-11-27T19:43:53.537Z,5.60
2022-11-27T19:46:26.369Z,9.57
2022-11-27T19:48:58.268Z,12.47
2022-11-27T19:51:26.503Z,10.67
2022-11-27T19:53:54.093Z,14.67
2022-11-27T19:56:21.746Z,13.90
2022-11-27T19:58:49.297Z,13.33
2022-11-27T20:01:18.311Z,8.33
2022-11-27T20:03:48.068Z,11.43
2022-11-27T20:06:17.389Z,8.20
2022-11-27T20:08:46.040Z,5.87
2022-11-27T20:11:15.418Z,5.53
2022-11-27T20:13:43.265Z,10.37
2022-11-27T20:16:12.640Z,12.27
2022-11-27T20:18:41.001Z,9.40
2022-11-27T20:21:09.832Z,9.93
2022-11-27T20:23:37.259Z,7.67
2022-11-27T20:26:09.722Z,10.20
2022-11-27T20:28:41.146Z,7.17
2022-11-27T20:31:35.965Z,6.03
2022-11-27T20:34:05.849Z,4.37
2022-11-27T20:36:34.897Z,9.07
2022-11-27T20:39:03.601Z,7.53
2022-11-27T20:41:31.717Z,5.23
2022-11-27T20:44:02.213Z,11.82
2022-11-27T20:46:31.770Z,6.17
2022-11-27T20:48:59.430Z,5.97
2022-11-27T20:51:30.894Z,9.10
2022-11-27T20:53:59.465Z,8.70
2022-11-27T20:56:27.001Z,17.60
2022-11-27T20:58:54.797Z,6.20
2022-11-27T21:01:31.195Z,6.50
2022-11-27T21:04:00.317Z,12.07
2022-11-27T21:06:30.564Z,8.67
2022-11-27T21:09:00.800Z,8.13
2022-11-27T21:11:30.163Z,7.20
2022-11-27T21:13:59.491Z,7.63
2022-11-27T21:16:28.261Z,7.97
2022-11-27T21:19:01.220Z,7.50
2022-11-27T21:21:29.476Z,8.73
2022-11-27T21:23:57.380Z,7.80
2022-11-27T21:26:25.298Z,6.53
2022-11-27T21:28:53.470Z,7.20
2022-11-27T21:31:23.093Z,11.03
2022-11-27T21:33:52.362Z,8.43
2022-11-27T21:36:21.049Z,9.63
2022-11-27T21:38:48.679Z,18.83
2022-11-27T21:41:17.832Z,28.00
2022-11-27T21:43:45.603Z,8.23
2022-11-27T21:46:14.886Z,7.97
2022-11-27T21:48:42.396Z,11.53
2022-11-27T21:51:14.993Z,8.70
2022-11-27T21:53:43.167Z,9.03
2022-11-27T21:56:12.158Z,8.93
2022-11-27T21:58:39.702Z,7.03
2022-11-27T22:01:08.442Z,10.30
2022-11-27T22:03:39.901Z,11.30
2022-11-27T22:06:14.658Z,9.97
2022-11-27T22:08:43.008Z,13.50
2022-11-27T22:11:11.258Z,8.33
2022-11-27T22:13:38.816Z,6.13
2022-11-27T22:16:25.412Z,7.83
2022-11-27T22:18:54.249Z,9.03
2022-11-27T22:21:21.790Z,7.30
2022-11-27T22:23:49.632Z,7.63
2022-11-27T22:26:21.316Z,11.33
2022-11-27T22:28:49.284Z,10.23
2022-11-27T22:31:18.604Z,12.13
2022-11-27T22:33:46.526Z,11.40
2022-11-27T22:36:40.190Z,10.63
2022-11-27T22:39:09.116Z,9.67
2022-11-27T22:41:37.302Z,7.43
2022-11-27T22:44:08.621Z,10.50
2022-11-27T22:46:36.610Z,8.27
2022-11-27T22:49:05.735Z,8.27
2022-11-27T22:51:34.545Z,8.93
2022-11-27T22:54:02.784Z,8.93
2022-11-27T22:56:33.594Z,5.93
2022-11-27T22:59:30.597Z,8.57
2022-11-27T23:01:49.097Z,7.70
2022-11-27T23:04:17.300Z,10.10
2022-11-27T23:06:48.438Z,10.10
2022-11-27T23:09:18.026Z,10.43
2022-11-27T23:11:45.643Z,8.47
2022-11-27T23:14:13.249Z,8.43
2022-11-27T23:16:40.958Z,9.67
2022-11-27T23:19:08.537Z,9.17
2022-11-27T23:21:38.797Z,8.60
2022-11-27T23:24:07.131Z,11.70
2022-11-27T23:26:34.977Z,7.00
2022-11-27T23:29:02.395Z,8.43
2022-11-27T23:31:32.820Z,9.17
2022-11-27T23:34:04.275Z,10.70
2022-11-27T23:36:32.645Z,9.10
2022-11-27T23:39:00.939Z,14.40
2022-11-27T23:41:29.075Z,11.43
2022-11-27T23:43:56.579Z,8.43
2022-11-27T23:46:26.223Z,14.27
2022-11-27T23:48:57.148Z,10.63
2022-11-27T23:51:26.156Z,7.83
2022-11-27T23:53:54.020Z,10.37
2022-11-27T23:56:22.828Z,10.17
2022-11-27T23:58:50.349Z,6.13
